ADDS METAR Data INFO
IDs: Format: Raw Decoded Include TAF

Data at: 0029 UTC 11 Dec 2017

K9D7 110015Z AUTO 25007KT 10SM BKN038 BKN047 OVC065 01/M04 A2990 RMK AO2
K9D7 102355Z AUTO 25007KT 10SM SCT055 OVC070 01/M04 A2991 RMK AO2
K9D7 102335Z AUTO 24006KT 10SM FEW013 FEW047 OVC070 00/M04 A2992 RMK AO2
K9D7 102315Z AUTO 24007KT 10SM SCT013 SCT065 BKN085 00/M04 A2992 RMK AO2
K9D7 102255Z AUTO 24005KT 10SM BKN070 01/M04 A2992 RMK AO2
K9D7 102235Z AUTO 24006KT 10SM OVC070 02/M04 A2993 RMK AO2
K9D7 102215Z AUTO 24006KT 10SM OVC070 02/M03 A2994 RMK AO2
K9D7 102155Z AUTO 24004KT 10SM OVC070 02/M03 A2995 RMK AO2
K9D7 102135Z AUTO 24006KT 10SM OVC070 02/M03 A2996 RMK AO2
K9D7 102115Z AUTO 24007KT 10SM OVC070 03/M03 A2997 RMK AO2
K9D7 102055Z AUTO 24007KT 10SM OVC075 03/M03 A2997 RMK AO2
K9D7 102035Z AUTO 25007KT 10SM OVC080 03/M03 A2997 RMK AO2
K9D7 102015Z AUTO 25006KT 10SM OVC080 03/M03 A2997 RMK AO2 LTG DSNT S AND NW
K9D7 101955Z AUTO 23006KT 10SM OVC075 03/M03 A2997 RMK AO2
K9D7 101935Z AUTO 24005KT 10SM BKN070 OVC085 02/M03 A2999 RMK AO2
K9D7 101915Z AUTO 00000KT 10SM OVC075 02/M03 A2999 RMK AO2
K9D7 101855Z AUTO 00000KT 10SM OVC075 02/M03 A3000 RMK AO2
K9D7 101835Z AUTO 00000KT 10SM OVC075 01/M02 A3000 RMK AO2
K9D7 101815Z AUTO 00000KT 10SM OVC080 01/M02 A3000 RMK AO2
K9D7 101755Z AUTO 00000KT 10SM OVC080 01/M01 A3000 RMK AO2
K9D7 101735Z AUTO 23004KT 10SM OVC080 00/M01 A3000 RMK AO2
K9D7 101715Z AUTO 00000KT 10SM BKN080 OVC110 M00/M01 A3001 RMK AO2
K9D7 101655Z AUTO 00000KT 10SM BKN090 OVC110 M01/M01 A3002 RMK AO2
K9D7 101635Z AUTO 00000KT 10SM BKN095 OVC110 M01/M01 A3002 RMK AO2
K9D7 101615Z AUTO 00000KT 10SM BKN100 OVC110 M02/M02 A3001 RMK AO2
K9D7 101555Z AUTO 00000KT 10SM OVC100 M03/M03 A3001 RMK AO2
K9D7 101535Z AUTO 00000KT 10SM OVC100 M03/M03 A3001 RMK AO2
K9D7 101515Z AUTO 00000KT 10SM OVC100 M04/M04 A3000 RMK AO2
K9D7 101455Z AUTO 00000KT 10SM OVC110 M04/M04 A3001 RMK AO2
K9D7 101435Z AUTO 00000KT 10SM OVC110 M05/M04 A3001 RMK AO2
K9D7 101415Z AUTO 00000KT 10SM FEW080 OVC110 M05/M05 A3001 RMK AO2
K9D7 101355Z AUTO 00000KT 10SM SCT080 OVC110 M05/M05 A3001 RMK AO2
K9D7 101335Z AUTO 20003KT 10SM BKN080 OVC110 M06/M06 A2999 RMK AO2
K9D7 101315Z AUTO 23004KT 10SM BKN110 M07/M07 A3000 RMK AO2
K9D7 101255Z AUTO 22004KT 10SM FEW110 M08/M08 A2999 RMK AO2
K9D7 101235Z AUTO 24003KT 10SM CLR M08/M08 A2999 RMK AO2
K9D7 101215Z AUTO 00000KT 10SM CLR M07/M07 A2999 RMK AO2
K9D7 101155Z AUTO 36005KT 10SM CLR M07/M07 A3000 RMK AO2
K9D7 101135Z AUTO 35003KT 10SM CLR M07/M07 A2999 RMK AO2
K9D7 101115Z AUTO 30004KT 10SM CLR M07/M06 A3000 RMK AO2
K9D7 101055Z AUTO 33005KT 10SM SCT100 SCT120 M06/M06 A3000 RMK AO2
K9D7 101035Z AUTO 00000KT 10SM BKN100 M05/M05 A2999 RMK AO2
K9D7 101015Z AUTO 00000KT 10SM SCT065 M04/M05 A2999 RMK AO2
K9D7 100955Z AUTO 35005KT 10SM BKN065 OVC075 M03/M05 A3000 RMK AO2
K9D7 100935Z AUTO 03004KT 10SM FEW065 BKN075 BKN090 M02/M04 A2998 RMK AO2
K9D7 100915Z AUTO 35005KT 10SM BKN095 BKN120 M01/M05 A2998 RMK AO2
K9D7 100855Z AUTO 35006G11KT 10SM FEW070 OVC090 M00/M04 A2996 RMK AO2
K9D7 100835Z AUTO 34008KT 10SM FEW065 SCT075 OVC090 M00/M04 A2996 RMK AO2
K9D7 100815Z AUTO 33007KT 10SM BKN065 OVC095 M00/M04 A2995 RMK AO2
K9D7 100755Z AUTO 32006KT 10SM BKN065 OVC080 M00/M04 A2994 RMK AO2
K9D7 100735Z AUTO 34007KT 10SM BKN070 OVC085 M00/M03 A2994 RMK AO2
K9D7 100715Z AUTO 32007KT 10SM BKN085 OVC110 M02/M04 A2994 RMK AO2
K9D7 100655Z AUTO 29006KT 10SM FEW060 SCT090 BKN110 M02/M04 A2993 RMK AO2
K9D7 100635Z AUTO 30005KT 10SM BKN110 M02/M04 A2993 RMK AO2
K9D7 100615Z AUTO 30007KT 10SM SCT120 M03/M04 A2992 RMK AO2
K9D7 100555Z AUTO 29009KT 10SM CLR M03/M04 A2992 RMK AO2
K9D7 100535Z AUTO 29007KT 10SM CLR M04/M04 A2990 RMK AO2
K9D7 100515Z AUTO 29008KT 10SM CLR M04/M04 A2990 RMK AO2
K9D7 100455Z AUTO 29008KT 10SM CLR M04/M04 A2989 RMK AO2
K9D7 100435Z AUTO 28007KT 10SM CLR M04/M04 A2988 RMK AO2
K9D7 100415Z AUTO 28005KT 10SM CLR M05/M06 A2988 RMK AO2
K9D7 100355Z AUTO 29007KT 10SM CLR M04/M06 A2987 RMK AO2
K9D7 100335Z AUTO 29006KT 10SM CLR M04/M06 A2986 RMK AO2
K9D7 100315Z AUTO 29007KT 10SM CLR M03/M06 A2986 RMK AO2
K9D7 100255Z AUTO 28009KT 10SM CLR M03/M06 A2986 RMK AO2
K9D7 100235Z AUTO 27006KT 10SM CLR M04/M07 A2985 RMK AO2
K9D7 100215Z AUTO 30005KT 10SM CLR M02/M07 A2984 RMK AO2
K9D7 100155Z AUTO 31007KT 10SM CLR M01/M06 A2984 RMK AO2
K9D7 100135Z AUTO 31009KT 10SM CLR 00/M06 A2983 RMK AO2
K9D7 100115Z AUTO 31011KT 10SM CLR 00/M06 A2982 RMK AO2
K9D7 100055Z AUTO 30012KT 10SM CLR 01/M06 A2981 RMK AO2
K9D7 100035Z AUTO 30013G20KT 10SM CLR 01/M06 A2980 RMK AO2
K9D7 100015Z AUTO 30016G21KT 10SM CLR 02/M06 A2980 RMK AO2
K9D7 092355Z AUTO 29017G24KT 10SM CLR 02/M06 A2979 RMK AO2
K9D7 092335Z AUTO 29020KT 10SM CLR 03/M06 A2978 RMK AO2
K9D7 092315Z AUTO 29018G24KT 10SM CLR 03/M06 A2977 RMK AO2
K9D7 092255Z AUTO 28017G25KT 10SM CLR 02/M06 A2977 RMK AO2
K9D7 092235Z AUTO 27017KT 10SM CLR 03/M06 A2978 RMK AO2
K9D7 092215Z AUTO 27014KT 10SM CLR 03/M06 A2977 RMK AO2
K9D7 092155Z AUTO 25011KT 10SM CLR 02/M05 A2978 RMK AO2
K9D7 092135Z AUTO 25009KT 10SM CLR 02/M05 A2980 RMK AO2
K9D7 092115Z AUTO 25009KT 10SM CLR 01/M05 A2980 RMK AO2
K9D7 092055Z AUTO 24011G16KT 10SM CLR 01/M05 A2981 RMK AO2
K9D7 092035Z AUTO 25012G17KT 10SM CLR 01/M05 A2983 RMK AO2
K9D7 092015Z AUTO 24014G20KT 10SM FEW120 02/M05 A2982 RMK AO2
K9D7 091955Z AUTO 24016KT 10SM BKN120 02/M06 A2983 RMK AO2
K9D7 091935Z AUTO 24017KT 10SM BKN110 01/M06 A2986 RMK AO2
K9D7 091915Z AUTO 22014KT 10SM FEW110 01/M06 A2988 RMK AO2
K9D7 091855Z AUTO 22014KT 10SM CLR M00/M06 A2989 RMK AO2
K9D7 091835Z AUTO 22013KT 10SM FEW120 M01/M06 A2992 RMK AO2
K9D7 091815Z AUTO 22015KT 10SM CLR M01/M06 A2994 RMK AO2
K9D7 091755Z AUTO 23015KT 10SM CLR M02/M06 A2997 RMK AO2
K9D7 091735Z AUTO 23012KT 10SM CLR M03/M06 A3000 RMK AO2
K9D7 091715Z AUTO 23012G18KT 10SM CLR M03/M07 A3001 RMK AO2
K9D7 091655Z AUTO 22014KT 10SM CLR M04/M07 A3001 RMK AO2
K9D7 091635Z AUTO 21009KT 10SM CLR M06/M07 A3002 RMK AO2
K9D7 091615Z AUTO 21011KT 10SM CLR M06/M08 A3002 RMK AO2
K9D7 091555Z AUTO 20011KT 10SM CLR M07/M08 A3002 RMK AO2
K9D7 091535Z AUTO 20011KT 10SM CLR M07/M09 A3003 RMK AO2
K9D7 091515Z AUTO 19009KT 10SM CLR M08/M10 A3003 RMK AO2
K9D7 091455Z AUTO 19007KT 10SM CLR M08/M09 A3004 RMK AO2
K9D7 091435Z AUTO 19006KT 10SM SCT011 M09/M10 A3006 RMK AO2
K9D7 091415Z AUTO 19004KT 10SM OVC012 M09/M10 A3007 RMK AO2
K9D7 091355Z AUTO 20004KT 10SM OVC013 M08/M10 A3009 RMK AO2
K9D7 091335Z AUTO 00000KT 10SM OVC013 M08/M10 A3011 RMK AO2
K9D7 091315Z AUTO 00000KT 10SM OVC014 M08/M10 A3012 RMK AO2
K9D7 091255Z AUTO 00000KT 10SM OVC015 M08/M10 A3012 RMK AO2
K9D7 091235Z AUTO 00000KT 10SM OVC016 M08/M10 A3012 RMK AO2